Time;durP1;ratioP1;P1;durP2;ratioP2;P2;SDS_P1;SDS_P2;PMS_P1;PMS_P2;Temp;Humidity;BMP_temperature;BMP_pressure;BME280_temperature;BME280_humidity;BME280_pressure;Samples;Min_cycle;Max_cycle;Signal;HPM_P1;HPM_P2
2021/03/04 00:00:31;;;;;;;34.05;21.38;;;7.70;93.50;;;;;;5078492;28;20036;-74
2021/03/04 00:02:58;;;;;;;38.20;22.30;;;7.80;93.50;;;;;;5085411;28;20025;-74
2021/03/04 00:05:24;;;;;;;46.00;23.70;;;7.90;93.20;;;;;;5072015;28;20051;-74
2021/03/04 00:07:50;;;;;;;37.90;22.85;;;8.00;92.80;;;;;;5071921;28;20025;-74
2021/03/04 00:10:22;;;;;;;37.13;20.38;;;8.10;92.50;;;;;;5070030;28;20037;-74
2021/03/04 00:12:49;;;;;;;34.42;20.80;;;8.10;92.30;;;;;;5071706;28;20048;-74
2021/03/04 00:15:21;;;;;;;33.00;19.67;;;8.20;92.10;;;;;;5079744;28;20036;-74
2021/03/04 00:17:48;;;;;;;36.55;20.55;;;8.20;92.20;;;;;;5072077;28;20037;-74
2021/03/04 00:20:20;;;;;;;31.67;19.80;;;8.10;92.30;;;;;;5086991;28;20032;-74
2021/03/04 00:22:46;;;;;;;33.13;21.05;;;8.10;92.40;;;;;;5072386;28;20355;-74
2021/03/04 00:25:14;;;;;;;40.85;21.83;;;8.10;92.60;;;;;;5083514;28;20028;-74
2021/03/04 00:27:41;;;;;;;39.67;22.30;;;8.10;92.60;;;;;;5080011;28;20405;-74
2021/03/04 00:30:10;;;;;;;37.80;21.80;;;8.10;92.60;;;;;;5071109;28;20028;-74
2021/03/04 00:32:36;;;;;;;32.78;19.58;;;8.00;92.60;;;;;;5072391;28;20044;-74
2021/03/04 00:35:03;;;;;;;34.97;20.17;;;8.10;92.50;;;;;;5071178;28;20040;-74
2021/03/04 00:37:30;;;;;;;36.72;20.73;;;8.10;92.40;;;;;;5071563;28;20029;-74
2021/03/04 00:39:56;;;;;;;34.20;20.67;;;8.10;92.30;;;;;;5071554;28;20049;-74
2021/03/04 00:42:22;;;;;;;33.95;20.10;;;8.10;92.50;;;;;;5079677;28;20036;-74
2021/03/04 00:44:48;;;;;;;32.58;20.10;;;8.00;92.60;;;;;;5077930;28;20028;-73
2021/03/04 00:47:14;;;;;;;37.90;20.00;;;8.00;92.70;;;;;;5071134;28;20465;-73
2021/03/04 00:49:41;;;;;;;36.22;22.40;;;7.90;92.80;;;;;;5071736;28;20021;-73
2021/03/04 00:52:07;;;;;;;35.63;20.67;;;7.80;92.90;;;;;;5076622;28;20354;-74
2021/03/04 00:54:33;;;;;;;34.55;21.20;;;7.90;93.50;;;;;;5078987;28;20393;-73
2021/03/04 00:57:00;;;;;;;36.00;21.27;;;7.80;93.50;;;;;;5088906;28;20036;-74
2021/03/04 00:59:26;;;;;;;38.15;22.00;;;7.70;93.70;;;;;;5072344;28;20021;-74
2021/03/04 01:01:52;;;;;;;33.05;20.17;;;7.70;94.10;;;;;;5071851;28;20037;-73
2021/03/04 01:04:18;;;;;;;34.08;20.13;;;7.70;93.90;;;;;;5069902;28;20281;-73
2021/03/04 01:06:44;;;;;;;32.63;18.92;;;7.70;93.90;;;;;;5071177;28;20041;-73
2021/03/04 01:09:11;;;;;;;36.08;20.70;;;7.70;93.80;;;;;;5071319;28;20029;-73
2021/03/04 01:11:37;;;;;;;36.28;20.27;;;7.70;93.70;;;;;;5071644;28;20043;-73
2021/03/04 01:14:03;;;;;;;30.35;18.10;;;7.70;93.70;;;;;;5070817;28;20024;-74
2021/03/04 01:16:30;;;;;;;31.88;18.65;;;7.70;93.70;;;;;;5074655;28;20032;-73
2021/03/04 01:18:56;;;;;;;34.10;18.90;;;7.60;93.90;;;;;;5075157;28;20032;-73
2021/03/04 01:21:22;;;;;;;31.30;18.30;;;7.70;93.90;;;;;;5074195;28;20036;-74
2021/03/04 01:23:48;;;;;;;30.52;19.00;;;7.80;94.00;;;;;;5075314;28;20048;-73
2021/03/04 01:26:14;;;;;;;32.15;18.73;;;7.80;93.70;;;;;;5074254;28;20055;-73
2021/03/04 01:28:40;;;;;;;33.28;18.92;;;7.80;93.70;;;;;;5074721;28;20489;-73
2021/03/04 01:31:07;;;;;;;31.95;18.92;;;7.70;94.10;;;;;;5074356;28;20477;-73
2021/03/04 01:33:33;;;;;;;26.98;18.85;;;7.70;94.20;;;;;;5095197;28;20461;-73
2021/03/04 01:35:59;;;;;;;34.17;19.58;;;7.60;94.50;;;;;;5074841;28;20048;-74
2021/03/04 01:38:25;;;;;;;35.35;20.45;;;7.60;94.50;;;;;;5080246;28;20024;-73
2021/03/04 01:40:51;;;;;;;32.67;20.50;;;7.60;94.50;;;;;;5081820;28;20055;-73
2021/03/04 01:43:18;;;;;;;36.08;20.05;;;7.60;94.50;;;;;;5074274;28;20130;-73
2021/03/04 01:45:44;;;;;;;33.58;19.60;;;7.60;94.50;;;;;;5074485;28;20029;-73
2021/03/04 01:48:10;;;;;;;32.17;19.13;;;7.60;94.60;;;;;;5074196;28;20390;-74
2021/03/04 01:50:37;;;;;;;36.70;19.83;;;7.60;94.80;;;;;;5074104;28;20044;-73
2021/03/04 01:53:03;;;;;;;31.23;18.42;;;7.50;95.00;;;;;;5073740;28;20060;-74
2021/03/04 01:55:30;;;;;;;34.80;20.20;;;7.40;95.30;;;;;;5072956;28;20056;-73
2021/03/04 01:57:57;;;;;;;32.38;18.52;;;7.30;95.50;;;;;;5074344;28;20028;-73
2021/03/04 02:00:23;;;;;;;34.17;20.15;;;7.30;95.70;;;;;;5074655;28;20024;-73
2021/03/04 02:02:50;;;;;;;34.83;19.67;;;7.20;95.90;;;;;;5087715;28;20386;-73
2021/03/04 02:05:17;;;;;;;33.28;20.45;;;7.10;96.10;;;;;;5074080;28;20031;-73
2021/03/04 02:08:02;;;;;;;33.38;19.30;;;7.10;96.50;;;;;;5074207;28;20036;-73
2021/03/04 02:10:48;;;;;;;35.28;20.75;;;7.10;96.60;;;;;;5074105;28;20021;-74
2021/03/04 02:13:36;;;;;;;36.50;19.92;;;7.00;97.00;;;;;;5071744;28;20044;-74
2021/03/04 02:16:08;;;;;;;32.15;20.30;;;7.00;97.40;;;;;;5083812;28;20098;-74
2021/03/04 02:18:39;;;;;;;38.78;20.70;;;6.90;97.60;;;;;;5081689;28;20055;-74
2021/03/04 02:21:30;;;;;;;37.72;20.08;;;6.80;97.90;;;;;;5084555;28;20039;-74
2021/03/04 02:24:05;;;;;;;33.50;18.90;;;6.80;98.20;;;;;;5079739;28;20033;-74
2021/03/04 02:26:43;;;;;;;33.00;20.13;;;6.70;98.50;;;;;;5083610;28;20073;-74
2021/03/04 02:29:13;;;;;;;33.50;19.83;;;6.60;98.80;;;;;;5077758;28;20024;-74
2021/03/04 02:31:42;;;;;;;39.75;20.65;;;6.50;99.50;;;;;;5083066;28;20049;-74
2021/03/04 02:34:10;;;;;;;34.95;22.00;;;6.60;99.90;;;;;;5073027;28;20040;-74
2021/03/04 02:36:40;;;;;;;32.13;20.58;;;6.50;99.90;;;;;;5074204;28;20032;-74
2021/03/04 02:39:07;;;;;;;35.43;20.27;;;6.40;99.90;;;;;;5092373;28;20036;-74
2021/03/04 02:41:36;;;;;;;39.88;22.75;;;6.30;99.90;;;;;;5073759;28;20512;-74
2021/03/04 02:44:05;;;;;;;35.17;22.45;;;6.40;99.90;;;;;;5072672;28;20130;-73
2021/03/04 02:46:34;;;;;;;40.15;22.77;;;6.50;99.90;;;;;;5073213;28;20028;-73
2021/03/04 02:49:01;;;;;;;37.25;22.30;;;6.60;99.90;;;;;;5072857;28;20339;-74
2021/03/04 02:51:29;;;;;;;38.95;23.25;;;6.60;99.90;;;;;;5073117;28;20031;-73
2021/03/04 02:53:57;;;;;;;42.30;23.73;;;6.50;99.90;;;;;;5077086;28;20024;-73
2021/03/04 02:56:24;;;;;;;39.28;23.60;;;6.50;99.90;;;;;;5081092;28;20047;-73
2021/03/04 02:58:53;;;;;;;34.20;21.63;;;6.40;99.90;;;;;;5073135;28;20401;-73
2021/03/04 03:01:21;;;;;;;38.17;22.67;;;6.40;99.90;;;;;;5075959;28;20496;-73
2021/03/04 03:03:48;;;;;;;36.78;22.13;;;6.30;99.90;;;;;;5077810;28;20059;-73
2021/03/04 03:06:17;;;;;;;84.80;42.55;;;6.20;99.90;;;;;;5072611;28;20052;-73
2021/03/04 03:08:45;;;;;;;270.25;125.93;;;6.20;99.90;;;;;;5078287;28;20035;-73
2021/03/04 03:11:14;;;;;;;225.10;119.07;;;6.10;99.90;;;;;;5081699;28;20481;-73
2021/03/04 03:13:42;;;;;;;88.78;51.30;;;6.20;99.90;;;;;;5072350;28;20374;-74
2021/03/04 03:16:08;;;;;;;117.88;69.28;;;6.10;99.90;;;;;;5072085;28;20029;-74
2021/03/04 03:18:34;;;;;;;76.15;44.70;;;6.20;99.90;;;;;;5082610;28;20398;-73
2021/03/04 03:21:01;;;;;;;83.97;54.65;;;6.20;99.90;;;;;;5075277;28;20032;-75
2021/03/04 03:23:27;;;;;;;53.90;34.00;;;6.10;99.90;;;;;;5087243;28;20028;-74
2021/03/04 03:25:53;;;;;;;70.30;43.20;;;6.10;99.90;;;;;;5073178;28;20032;-74
2021/03/04 03:28:19;;;;;;;64.63;41.10;;;6.00;99.90;;;;;;5071987;28;20362;-74
2021/03/04 03:30:45;;;;;;;46.17;28.50;;;5.90;99.90;;;;;;5072171;28;20039;-74
2021/03/04 03:33:14;;;;;;;43.28;25.65;;;5.80;99.90;;;;;;5071657;28;20048;-74
2021/03/04 03:35:41;;;;;;;43.85;27.42;;;5.70;99.90;;;;;;5072140;28;20458;-74
2021/03/04 03:38:08;;;;;;;47.17;27.33;;;5.50;99.90;;;;;;5071186;28;20032;-74
2021/03/04 03:40:37;;;;;;;42.40;26.38;;;5.40;99.90;;;;;;5072893;28;20044;-74
2021/03/04 03:43:08;;;;;;;40.22;23.95;;;5.40;99.90;;;;;;5071742;28;20032;-74
2021/03/04 03:45:37;;;;;;;43.10;24.30;;;5.40;99.90;;;;;;5072206;28;20037;-74
2021/03/04 03:48:08;;;;;;;38.60;23.60;;;5.30;99.90;;;;;;5071949;28;20073;-74
2021/03/04 03:50:34;;;;;;;39.33;23.65;;;5.30;99.90;;;;;;5075371;28;20043;-75
2021/03/04 03:53:01;;;;;;;39.60;22.33;;;5.20;99.90;;;;;;5074972;28;20035;-74
2021/03/04 03:55:28;;;;;;;39.22;22.88;;;5.20;99.90;;;;;;5072793;28;20028;-74
2021/03/04 03:57:56;;;;;;;40.00;23.65;;;5.20;99.90;;;;;;5073808;28;20059;-73
2021/03/04 04:00:24;;;;;;;36.58;22.73;;;5.20;99.90;;;;;;5072085;28;20033;-73
2021/03/04 04:02:59;;;;;;;42.00;22.27;;;5.20;99.90;;;;;;5072600;28;20047;-73
2021/03/04 04:05:27;;;;;;;39.13;21.08;;;5.20;99.90;;;;;;5089264;28;20020;-73
2021/03/04 04:07:57;;;;;;;37.85;22.30;;;5.10;99.90;;;;;;5074402;28;20032;-73
2021/03/04 04:10:25;;;;;;;33.78;20.00;;;5.00;99.90;;;;;;5071807;28;20036;-73
2021/03/04 04:12:51;;;;;;;36.22;20.48;;;5.00;99.90;;;;;;5080375;28;20032;-73
2021/03/04 04:15:19;;;;;;;41.03;23.90;;;4.90;99.90;;;;;;5071935;28;20029;-73
2021/03/04 04:17:46;;;;;;;39.38;22.25;;;4.90;99.90;;;;;;5079837;28;20040;-73
2021/03/04 04:20:13;;;;;;;53.05;26.15;;;4.90;99.90;;;;;;5082063;28;20036;-74
2021/03/04 04:22:41;;;;;;;48.88;24.65;;;4.80;99.90;;;;;;5081567;28;20091;-73
2021/03/04 04:25:08;;;;;;;43.75;26.10;;;4.80;99.90;;;;;;5072042;28;20028;-73
2021/03/04 04:27:35;;;;;;;47.20;26.20;;;4.80;99.90;;;;;;5083943;28;20032;-73
2021/03/04 04:30:01;;;;;;;49.50;31.73;;;4.80;99.90;;;;;;5071659;28;20029;-73
2021/03/04 04:32:27;;;;;;;41.10;25.83;;;4.80;99.90;;;;;;5072157;28;20382;-73
2021/03/04 04:34:53;;;;;;;73.40;40.78;;;4.80;99.90;;;;;;5071982;28;20031;-73
2021/03/04 04:37:19;;;;;;;45.97;27.58;;;4.80;99.90;;;;;;5071039;28;20032;-74
2021/03/04 04:39:45;;;;;;;44.03;24.33;;;4.80;99.90;;;;;;5071767;28;20055;-74
2021/03/04 04:42:12;;;;;;;35.03;21.58;;;4.80;99.90;;;;;;5071391;28;20048;-74
2021/03/04 04:44:38;;;;;;;39.30;21.65;;;4.90;99.90;;;;;;5081188;28;20035;-74
2021/03/04 04:47:04;;;;;;;38.90;22.02;;;5.10;99.90;;;;;;5071082;28;20043;-74
2021/03/04 04:49:30;;;;;;;39.90;21.17;;;5.30;99.90;;;;;;5072447;28;20029;-74
2021/03/04 04:51:56;;;;;;;33.85;19.73;;;5.40;99.90;;;;;;5087993;28;20044;-74
2021/03/04 04:54:23;;;;;;;35.78;19.98;;;5.50;99.90;;;;;;5085521;28;20226;-74
2021/03/04 04:56:49;;;;;;;34.58;19.13;;;5.50;99.90;;;;;;5091077;28;20044;-73
2021/03/04 04:59:15;;;;;;;33.05;20.10;;;5.40;99.90;;;;;;5079230;28;20474;-73
2021/03/04 05:01:41;;;;;;;33.08;20.15;;;5.40;99.90;;;;;;5075701;28;20063;-73
2021/03/04 05:04:08;;;;;;;30.60;19.40;;;5.30;99.90;;;;;;5085248;28;20024;-73
2021/03/04 05:06:34;;;;;;;40.05;20.25;;;5.30;99.90;;;;;;5086996;28;20041;-73
2021/03/04 05:09:00;;;;;;;40.83;24.05;;;5.30;99.90;;;;;;5086002;28;20028;-73
2021/03/04 05:11:26;;;;;;;39.45;24.40;;;5.30;99.90;;;;;;5078054;28;20024;-73
2021/03/04 05:13:53;;;;;;;42.63;23.73;;;5.30;99.90;;;;;;5084053;28;20028;-73
2021/03/04 05:16:19;;;;;;;37.85;22.45;;;5.30;99.90;;;;;;5082627;28;20469;-73
2021/03/04 05:18:45;;;;;;;35.92;22.77;;;5.30;99.90;;;;;;5089618;28;20036;-74
2021/03/04 05:21:11;;;;;;;34.97;21.92;;;5.30;99.90;;;;;;5074657;28;20032;-74
2021/03/04 05:23:37;;;;;;;37.30;23.05;;;5.20;99.90;;;;;;5075090;28;20044;-73
2021/03/04 05:26:04;;;;;;;33.47;21.58;;;5.20;99.90;;;;;;5082726;28;20041;-73
2021/03/04 05:28:30;;;;;;;37.72;21.23;;;5.20;99.90;;;;;;5079834;28;20024;-73
2021/03/04 05:30:56;;;;;;;33.22;20.42;;;5.20;99.90;;;;;;5075322;28;20033;-73
2021/03/04 05:33:22;;;;;;;32.78;19.88;;;5.20;99.90;;;;;;5091447;28;20044;-73
2021/03/04 05:35:48;;;;;;;37.45;20.58;;;5.20;99.90;;;;;;5081511;28;20028;-73
2021/03/04 05:38:15;;;;;;;30.50;18.17;;;5.20;99.90;;;;;;5091594;28;20032;-73
2021/03/04 05:40:41;;;;;;;34.10;19.50;;;5.10;99.90;;;;;;5078731;28;20041;-73
2021/03/04 05:43:10;;;;;;;31.10;20.15;;;5.10;99.90;;;;;;5074483;28;20054;-74
2021/03/04 05:45:40;;;;;;;28.33;18.05;;;5.10;99.90;;;;;;5074457;28;20047;-73
2021/03/04 05:48:08;;;;;;;30.25;19.17;;;5.20;99.90;;;;;;5084755;28;20039;-73
2021/03/04 05:50:46;;;;;;;29.95;18.40;;;5.30;99.90;;;;;;5076632;28;20032;-73
2021/03/04 05:53:19;;;;;;;34.60;18.35;;;5.30;99.90;;;;;;5080289;28;20031;-73
2021/03/04 05:55:46;;;;;;;30.75;18.65;;;5.20;99.90;;;;;;5088065;28;20040;-73
2021/03/04 05:58:12;;;;;;;35.95;20.02;;;5.20;99.90;;;;;;5083242;28;20492;-74
2021/03/04 06:00:43;;;;;;;42.33;20.75;;;5.30;99.90;;;;;;5079547;28;20398;-73
2021/03/04 06:03:10;;;;;;;39.55;21.38;;;5.40;99.90;;;;;;5076317;28;20044;-73
2021/03/04 06:05:37;;;;;;;39.60;21.58;;;5.30;99.90;;;;;;5087374;28;20036;-74
2021/03/04 06:08:05;;;;;;;33.75;19.08;;;5.30;99.90;;;;;;5088453;28;20035;-73
2021/03/04 06:10:32;;;;;;;31.00;19.17;;;5.30;99.90;;;;;;5088449;28;20036;-73
2021/03/04 06:12:59;;;;;;;37.63;18.95;;;5.50;99.90;;;;;;5089884;28;20036;-73
2021/03/04 06:15:26;;;;;;;33.13;19.48;;;5.70;99.90;;;;;;5080075;28;20048;-73
2021/03/04 06:17:54;;;;;;;34.17;18.85;;;5.70;99.90;;;;;;5080370;28;20484;-73
2021/03/04 06:20:21;;;;;;;37.90;18.85;;;5.70;99.90;;;;;;5085649;28;20024;-73
2021/03/04 06:22:48;;;;;;;31.90;18.25;;;5.60;99.90;;;;;;5082600;28;20454;-73
2021/03/04 06:25:15;;;;;;;35.00;20.13;;;5.70;99.90;;;;;;5084871;28;20032;-73
2021/03/04 06:27:43;;;;;;;32.47;19.05;;;5.60;99.90;;;;;;5073996;28;20048;-73
2021/03/04 06:30:12;;;;;;;32.30;20.25;;;5.50;99.90;;;;;;5073329;28;20032;-73
2021/03/04 06:32:56;;;;;;;31.17;17.77;;;5.40;99.90;;;;;;5073690;28;20043;-73
2021/03/04 06:35:29;;;;;;;33.90;18.88;;;5.40;99.90;;;;;;5073428;28;20466;-73
2021/03/04 06:37:55;;;;;;;29.08;18.67;;;5.50;99.90;;;;;;5073384;28;20045;-73
2021/03/04 06:40:32;;;;;;;31.23;18.77;;;5.60;99.90;;;;;;5073278;28;20052;-73
2021/03/04 06:42:59;;;;;;;33.67;19.52;;;5.70;99.90;;;;;;5073319;28;20035;-73
2021/03/04 06:45:30;;;;;;;31.70;20.08;;;5.90;99.90;;;;;;5072817;28;20052;-73
2021/03/04 06:48:12;;;;;;;35.65;19.65;;;6.10;99.90;;;;;;5072844;28;20044;-73
2021/03/04 06:50:40;;;;;;;36.13;18.00;;;6.30;99.90;;;;;;5073105;28;20037;-73
2021/03/04 06:53:26;;;;;;;32.13;17.65;;;6.30;99.90;;;;;;5073158;28;20454;-73
2021/03/04 06:56:05;;;;;;;29.35;16.55;;;6.40;99.90;;;;;;5076398;28;20040;-73
2021/03/04 06:58:39;;;;;;;30.15;17.67;;;6.50;99.90;;;;;;5077715;28;20042;-74
2021/03/04 07:01:18;;;;;;;32.75;17.02;;;6.60;99.90;;;;;;5075402;28;20386;-73
2021/03/04 07:03:51;;;;;;;28.10;17.92;;;6.70;99.90;;;;;;5074045;28;20043;-73
2021/03/04 07:06:23;;;;;;;35.65;19.40;;;6.80;99.90;;;;;;5079916;28;20035;-73
2021/03/04 07:08:52;;;;;;;30.73;18.35;;;6.90;99.90;;;;;;5073091;28;20037;-73
2021/03/04 07:11:24;;;;;;;31.70;17.08;;;6.90;99.90;;;;;;5072671;28;20024;-73
2021/03/04 07:13:51;;;;;;;29.48;18.73;;;7.10;99.90;;;;;;5072702;28;20044;-73
2021/03/04 07:16:22;;;;;;;26.40;17.92;;;7.20;99.90;;;;;;5072147;28;20040;-73
2021/03/04 07:18:59;;;;;;;26.88;15.63;;;7.30;99.90;;;;;;5073142;28;20032;-74
2021/03/04 07:21:29;;;;;;;31.10;17.20;;;7.40;99.90;;;;;;5077980;28;20028;-74
2021/03/04 07:23:55;;;;;;;29.35;19.00;;;7.60;99.90;;;;;;5081035;28;20032;-73
2021/03/04 07:26:22;;;;;;;34.15;17.88;;;8.20;98.40;;;;;;5072013;28;20028;-74
2021/03/04 07:28:50;;;;;;;28.08;17.13;;;8.80;96.20;;;;;;5074618;28;20080;-74
2021/03/04 07:31:17;;;;;;;33.45;17.58;;;9.30;94.50;;;;;;5081568;28;20040;-74
2021/03/04 07:33:48;;;;;;;25.40;16.67;;;9.90;92.00;;;;;;5072490;28;20051;-74
2021/03/04 07:36:19;;;;;;;34.33;17.92;;;10.30;90.00;;;;;;5072177;28;20028;-74
2021/03/04 07:38:59;;;;;;;31.15;17.17;;;10.40;87.00;;;;;;5071802;28;20409;-74
2021/03/04 07:41:45;;;;;;;28.25;17.77;;;9.70;87.50;;;;;;5072114;28;20040;-74
2021/03/04 07:44:27;;;;;;;29.60;18.02;;;9.70;89.30;;;;;;5072100;28;20450;-74
2021/03/04 07:46:58;;;;;;;28.73;17.40;;;10.00;86.40;;;;;;5083214;28;20032;-74
2021/03/04 07:49:36;;;;;;;29.50;15.65;;;10.30;85.80;;;;;;5072189;28;20035;-74
2021/03/04 07:52:13;;;;;;;30.20;16.77;;;10.90;81.90;;;;;;5072586;28;20052;-73
2021/03/04 07:54:41;;;;;;;72.25;37.53;;;11.10;79.70;;;;;;5075947;28;20029;-72
2021/03/04 07:57:15;;;;;;;140.45;70.60;;;11.40;78.30;;;;;;5080983;28;20496;-72
2021/03/04 07:59:58;;;;;;;33.83;20.23;;;11.40;77.60;;;;;;5084892;28;20032;-72
2021/03/04 08:02:33;;;;;;;34.17;22.50;;;11.60;75.20;;;;;;5084339;28;20071;-73
2021/03/04 08:05:30;;;;;;;48.38;33.08;;;11.80;73.60;;;;;;5088688;28;20032;-73
2021/03/04 08:07:56;;;;;;;43.50;29.83;;;11.80;73.20;;;;;;5083848;28;20094;-72
2021/03/04 08:10:24;;;;;;;66.00;49.50;;;11.60;73.80;;;;;;5083363;28;20033;-73
2021/03/04 08:12:52;;;;;;;31.20;21.60;;;12.00;72.40;;;;;;5084128;28;20043;-72
2021/03/04 08:15:20;;;;;;;23.60;16.98;;;12.20;70.80;;;;;;5089772;28;20068;-73
2021/03/04 08:17:47;;;;;;;32.05;23.80;;;12.40;70.00;;;;;;5085522;28;20052;-70
2021/03/04 08:20:17;;;;;;;27.00;18.35;;;12.90;69.70;;;;;;5084897;28;20035;-70
2021/03/04 08:22:49;;;;;;;36.55;27.27;;;13.60;66.90;;;;;;5085449;28;20405;-72
2021/03/04 08:25:27;;;;;;;36.83;25.67;;;13.50;65.70;;;;;;5087851;28;20099;-72
2021/03/04 08:27:54;;;;;;;23.65;16.83;;;13.70;64.50;;;;;;5093788;28;20039;-71
2021/03/04 08:30:30;;;;;;;21.80;16.25;;;13.80;64.50;;;;;;5090602;28;20373;-71
2021/03/04 08:33:00;;;;;;;24.08;16.50;;;13.90;62.40;;;;;;5081579;28;20044;-72
2021/03/04 08:35:28;;;;;;;23.02;16.88;;;13.60;63.00;;;;;;5085552;28;20068;-72
2021/03/04 08:38:05;;;;;;;26.27;17.10;;;13.90;62.40;;;;;;5085290;28;20397;-72
2021/03/04 08:40:43;;;;;;;22.35;15.20;;;13.80;62.30;;;;;;5079120;28;20060;-73
2021/03/04 08:43:14;;;;;;;31.73;20.70;;;14.20;61.20;;;;;;5075107;28;20028;-74
2021/03/04 08:45:41;;;;;;;24.77;16.17;;;14.70;60.30;;;;;;5075554;28;20040;-73
2021/03/04 08:48:10;;;;;;;23.88;16.30;;;15.00;59.10;;;;;;5075649;28;20044;-73
2021/03/04 08:50:39;;;;;;;23.20;14.88;;;14.30;60.20;;;;;;5088705;28;20044;-73
2021/03/04 08:53:17;;;;;;;24.80;15.90;;;14.50;59.40;;;;;;5075814;28;20044;-73
2021/03/04 08:55:53;;;;;;;25.98;15.30;;;14.80;59.20;;;;;;5074990;28;20283;-73
2021/03/04 08:58:21;;;;;;;24.50;15.25;;;14.40;59.20;;;;;;5088835;28;20075;-73
2021/03/04 09:01:00;;;;;;;23.02;15.20;;;13.60;60.00;;;;;;5075933;28;20032;-73
2021/03/04 09:03:28;;;;;;;23.85;15.63;;;13.40;60.90;;;;;;5075208;28;20409;-73
2021/03/04 09:06:17;;;;;;;22.08;14.48;;;13.80;61.10;;;;;;5075507;28;20024;-73
2021/03/04 09:08:45;;;;;;;19.88;13.00;;;14.00;61.20;;;;;;5074448;28;20043;-73
2021/03/04 09:11:29;;;;;;;19.38;13.35;;;15.30;58.70;;;;;;5084892;28;20028;-74
2021/03/04 09:14:09;;;;;;;19.02;11.75;;;15.70;56.20;;;;;;5083585;28;20025;-73
2021/03/04 09:16:50;;;;;;;23.48;15.10;;;16.20;56.10;;;;;;5075372;28;20378;-73
2021/03/04 09:19:26;;;;;;;22.73;13.68;;;16.40;54.10;;;;;;5078412;28;20393;-73
2021/03/04 09:21:53;;;;;;;19.42;12.65;;;16.20;55.20;;;;;;5083576;28;20044;-73
2021/03/04 09:24:19;;;;;;;16.90;11.00;;;16.60;54.50;;;;;;5084424;28;20024;-73
2021/03/04 09:26:46;;;;;;;19.02;11.63;;;16.10;54.40;;;;;;5074781;28;20033;-73
2021/03/04 09:29:12;;;;;;;17.55;11.98;;;15.50;55.30;;;;;;5083393;28;20032;-73
2021/03/04 09:31:52;;;;;;;20.60;11.15;;;15.80;55.20;;;;;;5076549;28;20049;-73
2021/03/04 09:34:19;;;;;;;22.13;12.37;;;15.70;54.90;;;;;;5074520;28;20037;-73
2021/03/04 09:36:45;;;;;;;19.33;11.38;;;16.20;54.50;;;;;;5074696;28;20465;-73
2021/03/04 09:39:11;;;;;;;21.05;12.38;;;16.60;53.30;;;;;;5073808;28;20036;-74
2021/03/04 09:41:37;;;;;;;17.98;11.23;;;16.00;53.60;;;;;;5075168;28;20040;-73
2021/03/04 09:44:05;;;;;;;20.48;11.75;;;15.90;53.80;;;;;;5083732;28;20465;-73
2021/03/04 09:46:38;;;;;;;18.35;10.93;;;15.10;54.90;;;;;;5073950;28;20393;-73
2021/03/04 09:49:16;;;;;;;18.25;10.25;;;15.40;55.00;;;;;;5074576;28;20478;-73
2021/03/04 09:51:46;;;;;;;22.63;11.05;;;16.20;54.90;;;;;;5087824;28;20032;-73
2021/03/04 09:54:27;;;;;;;25.48;12.27;;;16.40;53.60;;;;;;5074175;28;20028;-74
2021/03/04 09:57:06;;;;;;;;;;;15.70;53.90;;;;;;5074099;28;20036;-73
2021/03/04 09:59:46;;;;;;;16.35;10.52;;;15.10;55.40;;;;;;5087579;28;19915;-73
2021/03/04 10:02:12;;;;;;;19.67;11.23;;;14.10;58.10;;;;;;5080830;28;20402;-74
2021/03/04 10:04:49;;;;;;;17.92;11.27;;;13.50;58.50;;;;;;5074094;28;20450;-73
2021/03/04 10:07:16;;;;;;;27.77;12.18;;;13.20;59.50;;;;;;5074074;28;20037;-74
2021/03/04 10:09:47;;;;;;;22.45;11.02;;;13.00;60.50;;;;;;5074345;28;20028;-73
2021/03/04 10:12:13;;;;;;;18.80;10.68;;;13.30;60.10;;;;;;5085251;28;20032;-74
2021/03/04 10:14:50;;;;;;;16.98;11.00;;;13.40;60.00;;;;;;5073976;28;20040;-73
2021/03/04 10:17:17;;;;;;;17.25;10.93;;;13.30;60.30;;;;;;5073602;28;20032;-73
2021/03/04 10:19:44;;;;;;;22.35;11.65;;;13.40;59.80;;;;;;5073708;28;20024;-72
2021/03/04 10:22:10;;;;;;;20.23;10.65;;;13.50;59.70;;;;;;5078627;28;20036;-73
2021/03/04 10:24:37;;;;;;;20.27;10.98;;;13.40;60.10;;;;;;5079525;28;20029;-73
2021/03/04 10:27:06;;;;;;;19.05;11.18;;;13.50;60.60;;;;;;5089481;28;20043;-72
2021/03/04 10:29:34;;;;;;;18.73;10.25;;;13.30;60.00;;;;;;5082166;28;20258;-73
2021/03/04 10:32:01;;;;;;;20.25;9.98;;;13.30;60.20;;;;;;5073687;28;20037;-73
2021/03/04 10:34:27;;;;;;;17.30;10.35;;;13.30;61.10;;;;;;5073493;28;20051;-77
2021/03/04 10:36:53;;;;;;;19.55;11.52;;;13.20;61.00;;;;;;5073844;28;20028;-78
2021/03/04 10:39:21;;;;;;;17.27;10.43;;;13.30;61.00;;;;;;5073413;28;20374;-78
2021/03/04 10:41:48;;;;;;;23.33;11.18;;;13.60;60.80;;;;;;5073564;28;20032;-76
2021/03/04 10:44:14;;;;;;;17.15;10.07;;;14.20;60.00;;;;;;5084619;28;20036;-77
2021/03/04 10:46:41;;;;;;;21.63;10.48;;;14.30;59.10;;;;;;5078140;28;20040;-77
2021/03/04 10:49:08;;;;;;;17.75;11.32;;;14.50;59.10;;;;;;5087043;28;20047;-77
2021/03/04 10:51:35;;;;;;;22.70;11.40;;;14.80;58.30;;;;;;5081388;28;20047;-77
2021/03/04 10:54:02;;;;;;;24.40;11.52;;;15.00;58.00;;;;;;5074546;28;20032;-77
2021/03/04 10:56:29;;;;;;;22.05;11.35;;;15.10;57.80;;;;;;5073742;28;20446;-78
2021/03/04 10:58:55;;;;;;;18.75;10.77;;;14.90;57.80;;;;;;5073774;28;20036;-78
2021/03/04 11:01:21;;;;;;;21.42;11.23;;;14.90;58.00;;;;;;5085862;28;20401;-76
2021/03/04 11:03:48;;;;;;;20.90;10.30;;;14.90;57.90;;;;;;5087919;28;20398;-79
2021/03/04 11:06:14;;;;;;;19.00;10.27;;;15.10;57.80;;;;;;5076271;28;20029;-77
2021/03/04 11:08:40;;;;;;;18.27;9.63;;;15.10;57.60;;;;;;5075283;28;20036;-77
2021/03/04 11:11:06;;;;;;;17.92;9.80;;;15.20;57.60;;;;;;5083566;28;20036;-77
2021/03/04 11:13:33;;;;;;;13.75;8.68;;;15.20;57.10;;;;;;5085918;28;20532;-77
2021/03/04 11:15:59;;;;;;;18.85;9.45;;;15.30;56.80;;;;;;5071917;28;20354;-77
2021/03/04 11:18:25;;;;;;;15.48;9.13;;;15.50;56.80;;;;;;5072336;28;20045;-77
2021/03/04 11:20:51;;;;;;;20.63;9.48;;;15.70;56.40;;;;;;5076878;28;20386;-76
2021/03/04 11:23:18;;;;;;;20.50;10.32;;;15.80;56.20;;;;;;5077744;28;20497;-76
2021/03/04 11:25:44;;;;;;;16.95;8.75;;;15.70;55.80;;;;;;5072593;28;20032;-76
2021/03/04 11:28:10;;;;;;;15.25;8.70;;;15.60;56.50;;;;;;5072851;28;20033;-76
2021/03/04 11:30:37;;;;;;;17.92;8.73;;;15.80;56.20;;;;;;5072208;28;20047;-76
2021/03/04 11:33:04;;;;;;;20.83;9.52;;;16.00;56.10;;;;;;5073145;28;20037;-77
2021/03/04 11:35:31;;;;;;;18.90;10.38;;;15.90;55.90;;;;;;5071975;28;20035;-77
2021/03/04 11:37:57;;;;;;;15.80;8.82;;;16.00;56.00;;;;;;5072623;28;20035;-78
2021/03/04 11:40:24;;;;;;;17.88;9.82;;;16.10;55.40;;;;;;5082453;28;20056;-78
2021/03/04 11:42:50;;;;;;;17.35;8.57;;;16.10;55.10;;;;;;5075606;28;20059;-78
2021/03/04 11:45:17;;;;;;;20.60;8.70;;;16.00;55.40;;;;;;5070827;28;20037;-77
2021/03/04 11:47:44;;;;;;;17.10;9.00;;;15.70;55.30;;;;;;5072601;28;20044;-75
2021/03/04 11:50:11;;;;;;;15.73;9.50;;;15.70;55.70;;;;;;5072338;28;20039;-76
2021/03/04 11:52:37;;;;;;;18.27;8.68;;;15.80;55.60;;;;;;5071921;28;20043;-76
2021/03/04 11:55:05;;;;;;;13.50;8.32;;;16.00;55.70;;;;;;5076023;28;20032;-75
2021/03/04 11:57:31;;;;;;;12.93;8.00;;;16.50;54.90;;;;;;5081673;28;20037;-76
2021/03/04 11:59:57;;;;;;;21.02;9.43;;;16.40;55.00;;;;;;5073713;28;20381;-75
2021/03/04 12:02:26;;;;;;;18.23;9.43;;;16.30;54.70;;;;;;5083577;28;20039;-75
2021/03/04 12:04:53;;;;;;;18.65;8.68;;;16.30;54.50;;;;;;5085192;28;20460;-76
2021/03/04 12:07:21;;;;;;;14.13;7.80;;;16.30;54.40;;;;;;5086123;28;20025;-76
2021/03/04 12:09:48;;;;;;;14.82;8.80;;;16.00;54.80;;;;;;5076200;28;20033;-76
2021/03/04 12:12:14;;;;;;;14.38;8.40;;;15.60;55.50;;;;;;5072301;28;20028;-76
2021/03/04 12:14:41;;;;;;;18.38;7.82;;;15.80;55.10;;;;;;5082639;28;20028;-76
2021/03/04 12:17:07;;;;;;;17.83;8.23;;;16.00;55.00;;;;;;5079201;28;20033;-76
2021/03/04 12:19:33;;;;;;;14.85;8.00;;;16.40;55.20;;;;;;5082522;28;20461;-75
2021/03/04 12:21:59;;;;;;;18.33;8.30;;;16.30;54.00;;;;;;5079247;28;20051;-76
2021/03/04 12:24:26;;;;;;;17.42;8.18;;;16.30;54.50;;;;;;5077488;28;20020;-76
2021/03/04 12:26:52;;;;;;;18.50;9.30;;;16.20;54.50;;;;;;5077517;28;20031;-76
2021/03/04 12:29:18;;;;;;;17.08;8.88;;;16.30;54.60;;;;;;5083480;28;20429;-76
2021/03/04 12:31:45;;;;;;;18.40;8.23;;;15.80;55.90;;;;;;5081529;28;20036;-76
2021/03/04 12:34:12;;;;;;;19.83;9.05;;;15.80;55.30;;;;;;5072369;28;20023;-76
2021/03/04 12:36:38;;;;;;;20.67;8.77;;;15.40;56.00;;;;;;5071361;28;20041;-76
2021/03/04 12:39:05;;;;;;;16.75;8.40;;;15.30;56.90;;;;;;5071634;28;20037;-76
2021/03/04 12:41:31;;;;;;;17.52;7.90;;;15.30;56.50;;;;;;5071823;28;20024;-76